Hollister, Oklahoma
Current Conditions -  °F | °C
As of 7:53 PM on Friday 19 Dec 2014 (Local Time) from KFDR Reporting Station
Overcast Overcast  
Wind Chill: 41°   Ceiling: 2100
Heat Index: 44°   Visibility: 7mi
Dew Point: 40°   Wind: 6mph
Humidity: 85%   Direction: 110°ESE
Pressure: 30.19"   Gusts: NA
Location:  34.34°N, 98.87°W
Report Text: KFDR 200153Z AUTO 11005KT 7SM OVC021 07/04 A3019 RMK AO2 SLP223 T00670044
Loading
Personal Weather Stations






























Interactive Weather Map New forecast layout! Learn more

10-Day Weather Forecast

Advertisements
Track Severe Weather on mobile